Time;durP1;ratioP1;P1;durP2;ratioP2;P2;SDS_P1;SDS_P2;PMS_P1;PMS_P2;Temp;Humidity;BMP_temperature;BMP_pressure;BME280_temperature;BME280_humidity;BME280_pressure;Samples;Min_cycle;Max_cycle;Signal;HPM_P1;HPM_P2
2023/09/02 00:02:43;;;;;;;;;;;;;;;24.38;48.39;99009.40;67823;1278;1018326;-59
2023/09/02 00:05:45;;;;;;;19.20;5.50;;;;;;;24.36;48.36;99005.18;67827;1277;1016301;-60
2023/09/02 00:08:48;;;;;;;;;;;;;;;24.39;48.33;99004.30;67802;1278;1016415;-59
2023/09/02 00:11:50;;;;;;;21.20;5.50;;;;;;;24.36;48.21;99001.43;67871;1278;1016428;-59
2023/09/02 00:14:52;;;;;;;19.10;5.00;;;;;;;24.31;48.34;99004.86;67879;1278;1016484;-59
2023/09/02 00:17:55;;;;;;;20.90;5.40;;;;;;;24.20;48.56;99003.89;67836;1278;1018179;-59
2023/09/02 00:20:58;;;;;;;17.00;4.60;;;;;;;24.15;48.56;98999.27;67793;1278;1016639;-59
2023/09/02 00:24:00;;;;;;;16.30;4.80;;;;;;;24.04;48.81;98995.52;67855;1278;1016414;-60
2023/09/02 00:27:03;;;;;;;;;;;;;;;23.99;48.88;98988.88;67842;1277;1016438;-60
2023/09/02 00:30:05;;;;;;;21.50;5.80;;;;;;;24.03;49.01;98985.21;67811;1277;1018052;-59
2023/09/02 00:33:07;;;;;;;;;;;;;;;24.03;49.27;98987.59;67781;1278;1016383;-60
2023/09/02 00:36:10;;;;;;;20.60;5.20;;;;;;;24.16;49.12;98989.48;67783;1278;1016447;-60
2023/09/02 00:39:12;;;;;;;18.50;5.50;;;;;;;24.00;49.44;98985.92;67850;1278;1016831;-59
2023/09/02 00:42:15;;;;;;;;;;;;;;;23.98;49.62;98987.38;67857;1278;1016214;-59
2023/09/02 00:45:21;;;;;;;19.70;5.60;;;;;;;23.86;49.74;98988.43;67830;1278;1016327;-60
2023/09/02 00:48:24;;;;;;;17.50;5.30;;;;;;;23.97;49.63;98994.17;67796;1278;1018695;-59
2023/09/02 00:51:26;;;;;;;;;;;;;;;23.97;49.55;98995.41;67796;1278;1016114;-59
2023/09/02 00:54:28;;;;;;;19.70;5.30;;;;;;;23.98;49.81;98991.11;67823;1278;1016469;-59
2023/09/02 00:57:31;;;;;;;17.80;5.20;;;;;;;24.05;49.71;98984.83;67850;1278;1016382;-60
2023/09/02 01:00:33;;;;;;;20.20;5.60;;;;;;;24.13;49.53;98981.17;67847;1278;1018392;-59
2023/09/02 01:03:36;;;;;;;;;;;;;;;24.11;49.63;98979.66;67825;1278;1016463;-60
2023/09/02 01:06:38;;;;;;;;;;;;;;;24.22;49.33;98978.98;67798;1278;1016493;-60
2023/09/02 01:09:41;;;;;;;21.20;5.90;;;;;;;23.92;50.06;98977.02;67820;1278;1016171;-60
2023/09/02 01:12:43;;;;;;;19.70;5.80;;;;;;;23.77;50.41;98980.12;67829;1278;1016290;-60
2023/09/02 01:15:46;;;;;;;18.70;6.10;;;;;;;23.64;50.61;98982.46;67838;1278;1016202;-60
2023/09/02 01:18:48;;;;;;;19.60;5.60;;;;;;;23.63;50.73;98986.31;67753;1278;1016435;-60
2023/09/02 01:21:51;;;;;;;18.80;5.60;;;;;;;23.76;50.66;98990.11;67752;1278;1016398;-61
2023/09/02 01:24:53;;;;;;;18.80;5.50;;;;;;;23.79;50.58;98994.95;67858;1278;1016435;-60
2023/09/02 01:27:56;;;;;;;;;;;;;;;23.73;50.70;98996.44;67825;1278;1016376;-60
2023/09/02 01:30:58;;;;;;;19.30;5.40;;;;;;;23.94;50.26;99000.79;67806;1260;1017791;-61
2023/09/02 01:34:01;;;;;;;19.10;5.60;;;;;;;24.14;50.17;98999.00;67850;1278;1016525;-60
2023/09/02 01:37:03;;;;;;;;;;;;;;;24.22;49.78;98991.27;67845;1278;1019221;-60
2023/09/02 01:40:07;;;;;;;19.10;5.70;;;;;;;24.15;49.99;98987.98;67836;1278;1016454;-60
2023/09/02 01:43:09;;;;;;;19.90;5.60;;;;;;;23.93;50.28;98986.94;67849;1278;1016452;-60
2023/09/02 01:46:11;;;;;;;21.60;6.80;;;;;;;23.92;50.56;98988.95;67847;1278;1016475;-60
2023/09/02 01:49:14;;;;;;;19.70;5.70;;;;;;;24.12;50.36;98992.06;67806;1278;1016506;-60
2023/09/02 01:52:16;;;;;;;18.90;5.40;;;;;;;24.28;50.07;98992.22;67811;1278;1016466;-60
2023/09/02 01:55:19;;;;;;;19.00;6.10;;;;;;;24.31;49.88;98990.41;67801;1278;1016486;-60
2023/09/02 01:58:21;;;;;;;26.50;10.00;;;;;;;24.07;50.33;98988.15;67819;1278;1016422;-60
2023/09/02 02:01:24;;;;;;;22.90;7.50;;;;;;;24.00;50.58;98987.00;67864;1278;1016559;-60
2023/09/02 02:04:26;;;;;;;20.10;6.20;;;;;;;24.04;50.55;98994.70;67777;1278;1016400;-60
2023/09/02 02:07:29;;;;;;;;;;;;;;;24.04;50.66;99000.33;67806;1278;1016488;-60
2023/09/02 02:10:31;;;;;;;20.60;6.50;;;;;;;24.02;50.78;98998.35;67854;1278;1017944;-59
2023/09/02 02:13:33;;;;;;;25.10;7.80;;;;;;;24.12;50.56;98996.20;67850;1278;1016476;-60
2023/09/02 02:16:36;;;;;;;22.80;6.40;;;;;;;24.15;50.70;98997.50;67824;1278;1016404;-60
2023/09/02 02:19:38;;;;;;;18.40;5.40;;;;;;;24.25;50.60;98998.86;67818;1278;1016410;-60
2023/09/02 02:22:41;;;;;;;19.20;6.30;;;;;;;24.15;50.67;98997.59;67806;1278;1016585;-60
2023/09/02 02:25:43;;;;;;;;;;;;;;;23.97;50.81;98995.14;67854;1278;1016416;-58
2023/09/02 02:28:46;;;;;;;22.70;5.20;;;;;;;23.98;50.75;99001.04;67806;1278;1016023;-58
2023/09/02 02:31:48;;;;;;;22.90;5.90;;;;;;;23.96;50.91;99008.59;67863;1278;1016218;-61
2023/09/02 02:34:52;;;;;;;21.60;5.90;;;;;;;24.03;51.04;99013.49;67821;1278;1016368;-60
2023/09/02 02:37:55;;;;;;;16.90;5.60;;;;;;;24.16;50.66;99007.98;67809;1278;1016722;-60
2023/09/02 02:40:58;;;;;;;19.20;6.20;;;;;;;24.13;50.88;99002.66;67844;1278;1017146;-60
2023/09/02 02:44:00;;;;;;;;;;;;;;;24.07;50.67;99000.89;67846;1278;1016428;-60
2023/09/02 02:47:03;;;;;;;18.50;5.90;;;;;;;23.98;50.93;99004.02;67798;1278;1016400;-60
2023/09/02 02:50:05;;;;;;;20.40;5.60;;;;;;;24.05;50.82;98996.64;67792;1278;1016881;-58
2023/09/02 02:53:07;;;;;;;21.40;5.90;;;;;;;24.02;50.90;99008.41;67774;1278;1016451;-58
2023/09/02 02:56:10;;;;;;;;;;;;;;;24.04;50.85;99012.24;67769;1278;1016935;-59
2023/09/02 02:59:12;;;;;;;19.20;5.90;;;;;;;24.08;50.79;99010.79;67836;1278;1016001;-59
2023/09/02 03:02:15;;;;;;;;;;;;;;;23.91;51.37;99016.63;67868;1278;1016332;-59
2023/09/02 03:05:19;;;;;;;20.50;5.90;;;;;;;24.06;50.87;99015.38;67808;1278;1016306;-59
2023/09/02 03:08:22;;;;;;;20.20;5.20;;;;;;;24.02;50.87;99018.40;67795;1278;1016408;-59
2023/09/02 03:11:24;;;;;;;;;;;;;;;23.93;51.05;99023.20;67826;1278;1016224;-58
2023/09/02 03:14:26;;;;;;;19.80;6.10;;;;;;;23.82;51.23;99025.67;67827;1278;1016510;-58
2023/09/02 03:17:29;;;;;;;18.90;6.00;;;;;;;23.73;51.71;99031.25;67852;1278;1018848;-59
2023/09/02 03:20:31;;;;;;;19.50;6.00;;;;;;;23.86;51.40;99026.20;67771;1278;1016353;-58
2023/09/02 03:23:34;;;;;;;20.70;5.70;;;;;;;23.79;51.64;99027.88;67792;1262;1016301;-59
2023/09/02 03:26:37;;;;;;;17.90;5.70;;;;;;;23.89;51.50;99031.96;67834;1278;1016462;-58
2023/09/02 03:29:39;;;;;;;18.20;6.00;;;;;;;24.00;51.37;99037.14;67796;1278;1016217;-58
2023/09/02 03:32:41;;;;;;;22.30;6.60;;;;;;;23.91;51.53;99039.62;67793;1278;1015759;-58
2023/09/02 03:35:44;;;;;;;18.50;6.00;;;;;;;23.54;52.35;99038.55;67796;1278;1016383;-58
2023/09/02 03:38:46;;;;;;;22.10;5.60;;;;;;;23.55;52.40;99041.82;67811;1278;1016593;-59
2023/09/02 03:41:49;;;;;;;;;;;;;;;23.57;52.35;99042.85;67876;1278;1016062;-58
2023/09/02 03:44:51;;;;;;;22.10;6.10;;;;;;;23.70;52.15;99045.21;67803;1278;1016426;-59
2023/09/02 03:47:54;;;;;;;19.30;6.00;;;;;;;23.86;51.54;99047.27;67789;1278;1016074;-58
2023/09/02 03:50:56;;;;;;;20.50;5.90;;;;;;;23.83;51.70;99042.51;67804;1278;1016493;-58
2023/09/02 03:53:58;;;;;;;19.40;5.70;;;;;;;23.74;52.03;99045.56;67812;1278;1016371;-58
2023/09/02 03:57:02;;;;;;;20.10;5.80;;;;;;;23.71;52.01;99046.98;67813;1278;1016375;-59
2023/09/02 04:00:06;;;;;;;19.20;5.60;;;;;;;23.77;51.81;99049.58;67804;1278;1016398;-58
2023/09/02 04:03:08;;;;;;;20.20;6.10;;;;;;;23.77;51.90;99049.98;67790;1278;1016889;-59
2023/09/02 04:06:10;;;;;;;;;;;;;;;23.80;52.01;99052.45;67795;1278;1016336;-59
2023/09/02 04:09:13;;;;;;;17.60;5.60;;;;;;;23.95;51.52;99044.91;67810;1278;1016120;-59
2023/09/02 04:12:15;;;;;;;16.50;5.40;;;;;;;23.79;51.94;99048.63;67862;1278;1016380;-59
2023/09/02 04:15:18;;;;;;;17.80;5.70;;;;;;;23.83;52.07;99046.24;67818;1278;1016412;-59
2023/09/02 04:18:21;;;;;;;19.80;5.70;;;;;;;23.82;52.29;99049.70;67748;1278;1016256;-59
2023/09/02 04:21:23;;;;;;;19.40;5.70;;;;;;;23.83;52.27;99053.39;67838;1278;1017169;-59
2023/09/02 04:24:26;;;;;;;;;;;;;;;23.88;52.15;99055.44;67783;1278;1016385;-59
2023/09/02 04:27:28;;;;;;;21.60;6.90;;;;;;;24.02;52.04;99056.27;67712;1278;1018368;-59
2023/09/02 04:30:31;;;;;;;23.70;6.90;;;;;;;24.16;51.84;99059.14;67701;1278;1016251;-59
2023/09/02 04:33:33;;;;;;;;;;;;;;;24.27;51.97;99060.17;67759;1278;1016935;-59
2023/09/02 04:36:36;;;;;;;22.70;7.10;;;;;;;24.24;52.38;99064.52;67751;1278;1016421;-59
2023/09/02 04:39:40;;;;;;;;;;;;;;;24.30;52.16;99067.00;67797;1278;1018651;-59
2023/09/02 04:42:42;;;;;;;23.80;7.20;;;;;;;24.38;52.02;99072.30;67805;1278;1016440;-58
2023/09/02 04:45:45;;;;;;;21.40;7.90;;;;;;;24.28;52.72;99073.81;67815;1278;1018728;-58
2023/09/02 04:48:48;;;;;;;;;;;;;;;24.48;52.29;99077.98;67838;1278;1016486;-59
2023/09/02 04:51:50;;;;;;;21.40;7.80;;;;;;;24.49;52.41;99076.50;67818;1278;1017310;-59
2023/09/02 04:54:53;;;;;;;;;;;;;;;24.48;52.27;99079.08;67823;1278;1016311;-59
2023/09/02 04:57:56;;;;;;;21.90;7.80;;;;;;;24.44;52.38;99072.21;67857;1278;1016598;-59
2023/09/02 05:00:59;;;;;;;;;;;;;;;24.33;52.60;99074.52;67835;1278;1016318;-59
2023/09/02 05:04:01;;;;;;;23.10;8.00;;;;;;;24.26;52.87;99069.59;67812;1278;1016380;-59
2023/09/02 05:07:04;;;;;;;21.20;7.20;;;;;;;24.28;53.05;99074.78;67784;1278;1019949;-59
2023/09/02 05:10:06;;;;;;;;;;;;;;;24.34;53.10;99075.16;67839;1278;1016433;-59
2023/09/02 05:13:09;;;;;;;22.70;7.40;;;;;;;24.35;53.42;99083.02;67847;1278;1016272;-59
2023/09/02 05:16:11;;;;;;;;;;;;;;;24.23;53.72;99082.55;67803;1278;1016760;-59
2023/09/02 05:19:13;;;;;;;25.60;8.30;;;;;;;24.34;53.87;99081.89;67791;1278;1016066;-59
2023/09/02 05:22:16;;;;;;;18.10;6.80;;;;;;;24.35;53.92;99085.23;67802;1278;1016463;-59
2023/09/02 05:25:19;;;;;;;23.60;7.50;;;;;;;24.22;54.52;99094.38;67831;1278;1016456;-59
2023/09/02 05:28:21;;;;;;;20.50;7.10;;;;;;;24.11;54.74;99098.79;67797;1278;1017801;-59
2023/09/02 05:31:24;;;;;;;;;;;;;;;24.11;54.61;99101.20;67755;1278;1016014;-59
2023/09/02 05:34:26;;;;;;;21.10;6.80;;;;;;;23.84;55.63;99105.02;67847;1278;1018923;-59
2023/09/02 05:37:28;;;;;;;;;;;;;;;23.99;55.48;99102.36;67830;1278;1016433;-59
2023/09/02 05:40:31;;;;;;;18.00;6.30;;;;;;;24.14;55.11;99104.03;67839;1278;1016404;-59
2023/09/02 05:43:33;;;;;;;19.50;6.20;;;;;;;24.15;55.10;99101.17;67793;1278;1019212;-59
2023/09/02 05:46:35;;;;;;;19.30;6.90;;;;;;;24.33;55.18;99105.27;67790;1278;1016301;-59
2023/09/02 05:49:38;;;;;;;27.50;10.70;;;;;;;24.40;55.13;99110.36;67777;1278;1016445;-59
2023/09/02 05:52:41;;;;;;;;;;;;;;;24.45;54.68;99112.05;67847;1278;1019269;-59
2023/09/02 05:55:43;;;;;;;;;;;;;;;24.65;54.53;99113.91;67821;1278;1016731;-59
2023/09/02 05:58:45;;;;;;;21.00;6.10;;;;;;;25.01;53.81;99111.97;67755;1278;1015792;-59
2023/09/02 06:01:48;;;;;;;16.00;5.20;;;;;;;25.15;53.48;99117.61;67772;1278;1016502;-58
2023/09/02 06:04:50;;;;;;;;;;;;;;;25.00;53.89;99120.51;67843;1278;1016711;-59
2023/09/02 06:07:53;;;;;;;17.10;5.30;;;;;;;24.92;53.86;99124.77;67690;1278;1206145;-59
2023/09/02 06:10:55;;;;;;;;;;;;;;;25.05;53.68;99125.58;67861;1278;1016937;-59
2023/09/02 06:13:57;;;;;;;18.40;4.90;;;;;;;24.94;53.71;99126.75;67806;1278;1016439;-59
2023/09/02 06:17:00;;;;;;;;;;;;;;;24.76;54.26;99124.99;67792;1278;1016353;-59
2023/09/02 06:20:03;;;;;;;16.10;5.20;;;;;;;25.05;54.11;99128.60;67799;1278;1016203;-59
2023/09/02 06:23:05;;;;;;;17.00;5.20;;;;;;;25.35;53.88;99136.45;67829;1278;1016446;-59
2023/09/02 06:26:08;;;;;;;;;;;;;;;25.72;53.34;99137.49;67779;1278;1016421;-59
2023/09/02 06:29:10;;;;;;;17.40;5.10;;;;;;;25.84;53.06;99140.07;67815;1278;1016275;-58
2023/09/02 06:32:12;;;;;;;;;;;;;;;26.03;53.13;99139.86;67814;1278;1016520;-59
2023/09/02 06:35:15;;;;;;;18.90;5.80;;;;;;;26.28;52.90;99142.20;67853;1278;1016388;-59
2023/09/02 06:38:18;;;;;;;19.00;6.30;;;;;;;26.56;52.37;99145.73;67795;1278;1016430;-59
2023/09/02 06:41:20;;;;;;;;;;;;;;;26.44;51.56;99143.24;67786;1278;1015780;-58
2023/09/02 06:44:23;;;;;;;18.70;5.60;;;;;;;26.27;51.64;99142.70;67793;1278;1016410;-58
2023/09/02 06:47:25;;;;;;;;;;;;;;;26.01;52.18;99148.50;67819;1278;1016383;-58
2023/09/02 06:50:27;;;;;;;18.50;5.90;;;;;;;26.08;52.35;99155.35;67830;1278;1015809;-59
2023/09/02 06:53:30;;;;;;;;;;;;;;;26.22;51.68;99156.70;67809;1278;1016431;-59
2023/09/02 06:56:32;;;;;;;19.00;6.10;;;;;;;26.29;51.59;99152.77;67784;1278;1016472;-59
2023/09/02 06:59:34;;;;;;;;;;;;;;;26.44;51.80;99157.09;67777;1278;1016837;-59
2023/09/02 07:02:37;;;;;;;22.00;6.20;;;;;;;26.64;50.98;99159.01;67846;1278;1016461;-59
2023/09/02 07:05:39;;;;;;;17.70;5.80;;;;;;;27.06;51.09;99162.23;67862;1278;1016475;-59
2023/09/02 07:08:42;;;;;;;19.00;5.50;;;;;;;27.23;49.86;99156.13;67842;1278;1016425;-59
2023/09/02 07:11:44;;;;;;;17.70;4.90;;;;;;;27.56;49.83;99161.73;67796;1278;1016535;-59
2023/09/02 07:14:46;;;;;;;16.60;4.60;;;;;;;27.62;48.34;99164.17;67788;1278;1016465;-59
2023/09/02 07:17:49;;;;;;;14.80;4.60;;;;;;;27.58;47.08;99163.41;67776;1278;1016885;-59
2023/09/02 07:20:51;;;;;;;15.10;4.70;;;;;;;27.49;47.78;99162.54;67840;1278;1016258;-59
2023/09/02 07:23:53;;;;;;;17.00;4.60;;;;;;;27.76;47.42;99168.46;67857;1278;1015660;-59
2023/09/02 07:26:56;;;;;;;16.30;4.20;;;;;;;27.87;47.06;99170.08;67808;1278;1018407;-59
2023/09/02 07:29:58;;;;;;;16.00;4.70;;;;;;;27.83;46.87;99177.18;67794;1278;1017589;-59
2023/09/02 07:33:01;;;;;;;13.60;4.10;;;;;;;27.88;46.53;99174.39;67792;1278;1016311;-58
2023/09/02 07:36:03;;;;;;;14.10;4.20;;;;;;;27.85;45.94;99181.37;67812;1277;1016409;-59
2023/09/02 07:39:06;;;;;;;15.20;4.60;;;;;;;28.09;46.33;99179.40;67824;1278;1016307;-59
2023/09/02 07:42:08;;;;;;;13.30;3.70;;;;;;;28.49;46.10;99180.88;67803;1278;1016389;-59
2023/09/02 07:45:11;;;;;;;11.60;3.30;;;;;;;28.64;44.23;99185.10;67805;1278;1016494;-59
2023/09/02 07:48:14;;;;;;;14.80;3.70;;;;;;;28.37;43.55;99192.93;67819;1278;1016317;-59
2023/09/02 07:51:16;;;;;;;11.10;3.40;;;;;;;28.57;44.01;99191.79;67834;1278;1016418;-59
2023/09/02 07:54:18;;;;;;;11.70;3.20;;;;;;;28.67;42.98;99192.04;67851;1278;1015888;-59
2023/09/02 07:57:21;;;;;;;9.00;3.00;;;;;;;28.66;42.47;99193.38;67798;1278;1016177;-60
2023/09/02 08:00:23;;;;;;;10.60;3.40;;;;;;;28.83;43.56;99201.02;67801;1277;1016326;-59
2023/09/02 08:03:26;;;;;;;15.00;3.70;;;;;;;28.97;42.20;99207.50;67845;1277;1016397;-59
2023/09/02 08:06:28;;;;;;;9.90;3.30;;;;;;;29.01;42.26;99212.28;67850;1278;1016546;-59
2023/09/02 08:09:30;;;;;;;9.40;3.50;;;;;;;29.29;41.85;99211.20;67777;1278;1016433;-60
2023/09/02 08:12:33;;;;;;;13.80;3.40;;;;;;;29.51;41.53;99211.88;67793;1278;1016388;-60
2023/09/02 08:15:35;;;;;;;16.70;3.80;;;;;;;29.41;41.16;99218.86;67776;1278;1016472;-60
2023/09/02 08:18:38;;;;;;;12.60;3.60;;;;;;;29.52;41.39;99218.48;67826;1277;1017021;-60
2023/09/02 08:21:40;;;;;;;13.50;4.10;;;;;;;29.02;41.44;99221.30;67838;1278;1019232;-60
2023/09/02 08:24:43;;;;;;;14.30;3.80;;;;;;;29.17;42.81;99221.48;67842;1278;1016523;-60
2023/09/02 08:27:46;;;;;;;12.50;3.80;;;;;;;29.41;42.05;99223.31;67746;1278;1018784;-60
2023/09/02 08:30:48;;;;;;;13.70;3.50;;;;;;;29.34;41.34;99227.63;67832;1278;1017245;-60
2023/09/02 08:33:51;;;;;;;14.80;3.80;;;;;;;29.13;42.11;99227.89;67818;1278;1016487;-60
2023/09/02 08:36:53;;;;;;;15.00;3.70;;;;;;;28.91;42.41;99230.66;67783;1278;1016237;-60
2023/09/02 08:39:55;;;;;;;13.90;3.60;;;;;;;28.71;42.16;99230.21;67785;1278;1016544;-59
2023/09/02 08:42:58;;;;;;;11.00;3.60;;;;;;;28.74;42.74;99234.55;67801;1278;1016393;-60
2023/09/02 08:46:00;;;;;;;13.80;3.50;;;;;;;28.98;42.49;99236.16;67856;1278;1016396;-59
2023/09/02 08:49:03;;;;;;;12.30;3.80;;;;;;;29.31;41.91;99243.48;67831;1278;1016829;-59
2023/09/02 08:52:05;;;;;;;11.60;3.20;;;;;;;29.61;41.59;99246.30;67794;1278;1016410;-60
2023/09/02 08:55:07;;;;;;;14.20;3.50;;;;;;;30.16;41.63;99249.23;67813;1278;1016554;-60
2023/09/02 08:58:10;;;;;;;9.30;3.30;;;;;;;30.41;40.51;99260.33;67823;1278;1016199;-60
2023/09/02 09:01:12;;;;;;;11.30;3.40;;;;;;;30.39;39.22;99259.45;67836;1278;1016284;-59
2023/09/02 09:04:15;;;;;;;11.90;3.50;;;;;;;30.17;38.56;99258.61;67831;1278;1016300;-60
2023/09/02 09:07:17;;;;;;;9.20;3.10;;;;;;;30.67;39.56;99259.23;67800;1277;1016891;-60
2023/09/02 09:10:21;;;;;;;9.90;2.60;;;;;;;30.89;37.61;99264.15;67770;1278;1017056;-60
2023/09/02 09:13:23;;;;;;;13.00;3.30;;;;;;;30.84;37.73;99266.79;67761;1277;1016497;-59
2023/09/02 09:16:25;;;;;;;10.60;3.10;;;;;;;30.32;37.54;99271.73;67810;1278;1016732;-60
2023/09/02 09:19:28;;;;;;;9.70;3.10;;;;;;;30.17;37.98;99273.13;67847;1278;1016465;-60
2023/09/02 09:22:31;;;;;;;12.80;3.30;;;;;;;30.06;37.43;99273.31;67822;1278;1016485;-60
2023/09/02 09:25:33;;;;;;;10.50;2.80;;;;;;;30.13;38.76;99272.39;67749;1278;1016878;-59
2023/09/02 09:28:35;;;;;;;13.00;3.40;;;;;;;30.24;37.78;99275.66;67799;1278;1016290;-60
2023/09/02 09:31:38;;;;;;;10.50;2.90;;;;;;;30.59;38.00;99275.29;67828;1278;1016413;-60
2023/09/02 09:34:40;;;;;;;8.30;2.70;;;;;;;31.08;37.11;99269.40;67848;1278;1016714;-60
2023/09/02 09:37:42;;;;;;;7.40;2.30;;;;;;;31.38;34.76;99270.39;67837;1278;1018831;-59
2023/09/02 09:40:45;;;;;;;9.80;2.90;;;;;;;31.30;35.21;99275.53;67827;1278;1016413;-60
2023/09/02 09:43:47;;;;;;;7.50;2.40;;;;;;;31.54;35.26;99273.59;67807;1278;1016272;-60
2023/09/02 09:46:51;;;;;;;8.20;2.70;;;;;;;31.94;34.27;99277.08;67794;1278;1018952;-60
2023/09/02 09:49:53;;;;;;;29.30;4.30;;;;;;;32.21;34.17;99273.98;67778;1278;1016277;-60
2023/09/02 09:52:55;;;;;;;12.30;3.30;;;;;;;32.78;33.95;99269.70;67790;1278;1018887;-60
2023/09/02 09:55:58;;;;;;;7.10;2.50;;;;;;;32.43;33.35;99278.12;67814;1278;1016463;-60
2023/09/02 09:59:00;;;;;;;7.90;2.70;;;;;;;31.37;33.50;99290.87;67842;1278;1016394;-60
2023/09/02 10:02:04;;;;;;;9.70;2.80;;;;;;;30.45;35.39;99295.63;67831;1278;1016490;-59
2023/09/02 10:05:06;;;;;;;9.20;2.80;;;;;;;29.86;36.89;99298.26;67849;1278;1016275;-59
2023/09/02 10:08:09;;;;;;;9.20;2.90;;;;;;;30.33;37.58;99297.94;67773;1278;1016240;-60
2023/09/02 10:11:12;;;;;;;6.70;2.70;;;;;;;31.09;36.43;99291.64;67786;1278;1016488;-60
2023/09/02 10:14:14;;;;;;;8.60;2.70;;;;;;;31.69;35.78;99291.17;67812;1278;1016351;-59
2023/09/02 10:17:17;;;;;;;9.80;2.70;;;;;;;31.58;34.31;99287.92;67857;1278;1015920;-59
2023/09/02 10:20:19;;;;;;;14.90;3.50;;;;;;;31.91;34.47;99284.66;67838;1278;1016450;-59
2023/09/02 10:23:21;;;;;;;8.20;2.90;;;;;;;32.45;34.34;99286.54;67822;1254;1016161;-60
2023/09/02 10:26:24;;;;;;;11.20;2.70;;;;;;;32.66;34.56;99287.71;67783;1278;1016204;-60
2023/09/02 10:29:26;;;;;;;9.60;2.70;;;;;;;32.86;33.72;99285.48;67801;1278;1016488;-60
2023/09/02 10:32:28;;;;;;;6.10;2.70;;;;;;;32.43;33.01;99290.71;67801;1278;1016627;-59
2023/09/02 10:35:31;;;;;;;9.70;2.90;;;;;;;31.93;33.25;99296.75;67858;1278;1016326;-59
2023/09/02 10:38:33;;;;;;;9.90;2.90;;;;;;;31.39;34.09;99304.79;67808;1278;1016522;-59
2023/09/02 10:41:36;;;;;;;8.70;2.80;;;;;;;31.07;34.71;99304.28;67818;1278;1016277;-60
2023/09/02 10:44:38;;;;;;;10.80;3.10;;;;;;;30.90;35.27;99309.14;67806;1278;1016347;-60
2023/09/02 10:47:40;;;;;;;9.20;2.80;;;;;;;30.80;35.00;99314.08;67790;1278;1016512;-59
2023/09/02 10:50:43;;;;;;;12.30;3.00;;;;;;;30.29;35.51;99315.64;67838;1278;1016567;-59
2023/09/02 10:53:45;;;;;;;10.60;3.00;;;;;;;30.06;36.12;99311.42;67823;1278;1016422;-59
2023/09/02 10:56:47;;;;;;;12.90;3.70;;;;;;;30.04;36.68;99317.61;67845;1278;1016257;-59
2023/09/02 10:59:50;;;;;;;7.70;2.40;;;;;;;29.76;37.17;99318.34;67796;1278;1016410;-59
2023/09/02 11:02:52;;;;;;;11.00;2.90;;;;;;;29.65;37.52;99320.27;67810;1278;1016599;-59
2023/09/02 11:05:55;;;;;;;8.40;2.80;;;;;;;29.71;37.03;99321.89;67815;1278;1016490;-59
2023/09/02 11:08:57;;;;;;;10.80;3.00;;;;;;;29.91;36.93;99322.77;67833;1278;1016298;-59
2023/09/02 11:11:59;;;;;;;7.20;2.80;;;;;;;30.29;36.67;99321.14;67844;1277;1016343;-60
2023/09/02 11:15:02;;;;;;;9.70;3.00;;;;;;;30.76;36.13;99322.96;67788;1278;1016797;-59
2023/09/02 11:18:04;;;;;;;12.80;2.80;;;;;;;31.29;35.88;99321.26;67814;1278;1016534;-60
2023/09/02 11:21:06;;;;;;;7.30;2.60;;;;;;;31.93;35.41;99326.63;67800;1278;1016498;-59
2023/09/02 11:24:09;;;;;;;6.30;2.40;;;;;;;32.18;33.72;99323.67;67816;1278;1016325;-59
2023/09/02 11:27:11;;;;;;;7.60;2.60;;;;;;;32.21;33.26;99331.12;67833;1278;1016390;-59
2023/09/02 11:30:14;;;;;;;9.80;2.80;;;;;;;31.57;33.54;99337.29;67822;1278;1016497;-60
2023/09/02 11:33:16;;;;;;;6.90;2.40;;;;;;;31.18;33.50;99342.79;67794;1278;1016827;-60
2023/09/02 11:36:18;;;;;;;11.80;2.90;;;;;;;31.05;33.75;99343.13;67774;1278;1016506;-60
2023/09/02 11:39:21;;;;;;;8.90;3.20;;;;;;;31.28;33.66;99344.71;67810;1278;1016453;-60
2023/09/02 11:42:26;;;;;;;9.70;2.90;;;;;;;31.07;34.04;99345.75;67811;1278;1016291;-59
2023/09/02 11:45:29;;;;;;;12.10;2.70;;;;;;;31.17;33.88;99346.21;67742;1278;1016759;-59
2023/09/02 11:48:31;;;;;;;7.90;2.80;;;;;;;31.81;33.15;99339.73;67851;1278;1018104;-59
2023/09/02 11:51:33;;;;;;;7.90;2.50;;;;;;;31.90;32.39;99338.42;67832;1278;1016475;-59
2023/09/02 11:54:36;;;;;;;8.40;2.50;;;;;;;31.96;32.63;99339.08;67832;1278;1019056;-60
2023/09/02 11:57:38;;;;;;;6.90;2.50;;;;;;;32.18;31.52;99336.70;67816;1278;1016390;-59
2023/09/02 12:00:40;;;;;;;8.00;2.60;;;;;;;32.74;31.95;99333.33;67795;1278;1016313;-59
2023/09/02 12:03:43;;;;;;;8.60;2.40;;;;;;;32.63;30.84;99341.16;67781;1278;1016384;-59
2023/09/02 12:06:45;;;;;;;8.60;2.70;;;;;;;32.61;31.46;99336.64;67794;1278;1016426;-60
2023/09/02 12:09:48;;;;;;;7.70;2.60;;;;;;;32.64;30.96;99344.71;67866;1278;1016340;-60
2023/09/02 12:12:50;;;;;;;10.80;2.90;;;;;;;32.76;31.97;99338.41;67861;1278;1016473;-59
2023/09/02 12:15:52;;;;;;;8.10;2.50;;;;;;;33.05;31.85;99335.38;67822;1278;1016409;-60
2023/09/02 12:18:55;;;;;;;8.00;3.00;;;;;;;33.16;31.28;99336.41;67799;1278;1018057;-59
2023/09/02 12:21:57;;;;;;;9.90;2.50;;;;;;;33.52;31.07;99337.90;67779;1278;1016715;-59
2023/09/02 12:24:59;;;;;;;6.20;2.30;;;;;;;34.01;30.30;99336.64;67857;1278;1016712;-59
2023/09/02 12:28:02;;;;;;;8.20;2.50;;;;;;;33.46;29.05;99337.00;67881;1278;1016500;-60
2023/09/02 12:31:05;;;;;;;8.50;2.60;;;;;;;32.98;29.95;99339.58;67862;1278;1016336;-60
2023/09/02 12:34:07;;;;;;;8.00;2.40;;;;;;;33.22;30.42;99330.75;67791;1278;1015974;-59
2023/09/02 12:37:09;;;;;;;8.60;2.60;;;;;;;33.45;30.11;99333.83;67823;1278;1016228;-60
2023/09/02 12:40:12;;;;;;;8.90;2.90;;;;;;;33.57;29.97;99335.96;67848;1278;1016826;-60
2023/09/02 12:43:14;;;;;;;6.60;2.30;;;;;;;33.44;29.96;99338.23;67870;1278;1015996;-59
2023/09/02 12:46:16;;;;;;;7.60;2.60;;;;;;;33.73;30.29;99340.38;67836;1278;1016692;-60
2023/09/02 12:49:19;;;;;;;7.30;2.40;;;;;;;33.87;29.93;99335.48;67774;1278;1016426;-59
2023/09/02 12:52:21;;;;;;;5.00;2.30;;;;;;;34.20;29.83;99338.34;67810;1278;1015925;-59
2023/09/02 12:55:23;;;;;;;7.30;2.50;;;;;;;33.72;29.02;99348.09;67807;1278;1016789;-59
2023/09/02 12:58:26;;;;;;;5.80;2.40;;;;;;;33.41;29.47;99345.14;67776;1278;1016846;-59
2023/09/02 13:01:28;;;;;;;7.00;2.40;;;;;;;33.54;30.11;99341.58;67845;1278;1016614;-60
2023/09/02 13:04:31;;;;;;;8.90;2.20;;;;;;;33.67;29.57;99346.15;67859;1278;1016478;-60
2023/09/02 13:07:33;;;;;;;6.70;2.50;;;;;;;33.71;29.13;99340.95;67836;1278;1016241;-59
2023/09/02 13:10:35;;;;;;;6.70;2.40;;;;;;;33.65;29.84;99336.55;67773;1278;1016452;-60
2023/09/02 13:13:38;;;;;;;9.30;2.80;;;;;;;33.99;29.79;99335.70;67770;1278;1016497;-60
2023/09/02 13:16:40;;;;;;;9.20;2.70;;;;;;;34.39;29.58;99338.63;67801;1278;1016429;-60
2023/09/02 13:19:42;;;;;;;8.10;2.50;;;;;;;34.79;29.40;99334.13;67846;1278;1016220;-60
2023/09/02 13:22:47;;;;;;;4.70;2.10;;;;;;;34.33;28.81;99336.14;67853;1278;1016288;-60
2023/09/02 13:25:49;;;;;;;6.90;2.50;;;;;;;33.42;28.93;99340.18;67864;1278;1018861;-60
2023/09/02 13:28:52;;;;;;;8.10;2.60;;;;;;;33.50;29.50;99333.92;67783;1278;1017120;-60
2023/09/02 13:31:55;;;;;;;9.10;3.20;;;;;;;33.37;29.65;99336.13;67787;1278;1016474;-59
2023/09/02 13:34:57;;;;;;;4.70;2.00;;;;;;;33.32;30.27;99338.38;67848;1278;1018238;-60
2023/09/02 13:38:00;;;;;;;7.10;2.30;;;;;;;33.27;28.98;99337.80;67817;1278;1016715;-60
2023/09/02 13:41:02;;;;;;;4.70;2.00;;;;;;;32.95;28.62;99340.70;67826;1278;1016619;-60
2023/09/02 13:44:04;;;;;;;8.00;2.50;;;;;;;32.88;29.56;99339.58;67815;1278;1018243;-60
2023/09/02 13:47:07;;;;;;;5.10;2.30;;;;;;;32.72;29.69;99339.44;67767;1278;1016879;-59
2023/09/02 13:50:11;;;;;;;6.50;2.30;;;;;;;32.77;30.17;99335.63;67843;1278;1016172;-60
2023/09/02 13:53:13;;;;;;;5.70;2.30;;;;;;;32.84;29.93;99338.90;67879;1278;1016428;-60
2023/09/02 13:56:16;;;;;;;5.10;2.00;;;;;;;32.75;30.16;99331.93;67839;1278;1016446;-60
2023/09/02 13:59:18;;;;;;;8.40;2.50;;;;;;;32.98;30.04;99327.52;67818;1278;1016247;-59
2023/09/02 14:02:21;;;;;;;7.20;2.50;;;;;;;33.07;29.85;99323.40;67598;1278;1016336;-60
2023/09/02 14:05:23;;;;;;;7.10;2.40;;;;;;;33.16;29.90;99320.59;67665;1278;1016289;-60